sensor_id;sensor_type;location;lat;lon;timestamp;P1;durP1;ratioP1;P2;durP2;ratioP2
35715;SDS011;21840;44.920;8.616;2022-07-22T00:02:20;9.18;;;4.82;;
35715;SDS011;21840;44.920;8.616;2022-07-22T00:04:45;7.75;;;4.82;;
35715;SDS011;21840;44.920;8.616;2022-07-22T00:07:11;12.82;;;4.68;;
35715;SDS011;21840;44.920;8.616;2022-07-22T00:09:39;9.43;;;4.65;;
35715;SDS011;21840;44.920;8.616;2022-07-22T00:12:04;7.25;;;5.18;;
35715;SDS011;21840;44.920;8.616;2022-07-22T00:14:30;5.55;;;4.28;;
35715;SDS011;21840;44.920;8.616;2022-07-22T00:16:56;9.25;;;4.95;;
35715;SDS011;21840;44.920;8.616;2022-07-22T00:19:21;7.22;;;4.53;;
35715;SDS011;21840;44.920;8.616;2022-07-22T00:21:49;8.05;;;4.72;;
35715;SDS011;21840;44.920;8.616;2022-07-22T00:24:16;10.38;;;4.63;;
35715;SDS011;21840;44.920;8.616;2022-07-22T00:26:42;8.45;;;4.38;;
35715;SDS011;21840;44.920;8.616;2022-07-22T00:29:07;8.98;;;4.90;;
35715;SDS011;21840;44.920;8.616;2022-07-22T00:31:33;9.77;;;5.22;;
35715;SDS011;21840;44.920;8.616;2022-07-22T00:33:59;8.88;;;4.57;;
35715;SDS011;21840;44.920;8.616;2022-07-22T00:36:26;9.18;;;4.97;;
35715;SDS011;21840;44.920;8.616;2022-07-22T00:38:52;8.93;;;4.70;;
35715;SDS011;21840;44.920;8.616;2022-07-22T00:41:18;7.75;;;4.45;;
35715;SDS011;21840;44.920;8.616;2022-07-22T00:44:03;8.00;;;5.13;;
35715;SDS011;21840;44.920;8.616;2022-07-22T00:46:30;7.22;;;4.72;;
35715;SDS011;21840;44.920;8.616;2022-07-22T00:48:57;8.27;;;5.15;;
35715;SDS011;21840;44.920;8.616;2022-07-22T00:51:24;7.53;;;4.78;;
35715;SDS011;21840;44.920;8.616;2022-07-22T00:53:51;10.20;;;4.45;;
35715;SDS011;21840;44.920;8.616;2022-07-22T00:56:17;7.30;;;5.07;;
35715;SDS011;21840;44.920;8.616;2022-07-22T00:58:44;6.63;;;4.47;;
35715;SDS011;21840;44.920;8.616;2022-07-22T01:01:11;6.75;;;4.25;;
35715;SDS011;21840;44.920;8.616;2022-07-22T01:03:36;7.55;;;4.68;;
35715;SDS011;21840;44.920;8.616;2022-07-22T01:06:02;9.80;;;5.25;;
35715;SDS011;21840;44.920;8.616;2022-07-22T01:08:28;10.50;;;4.63;;
35715;SDS011;21840;44.920;8.616;2022-07-22T01:11:05;7.05;;;4.85;;
35715;SDS011;21840;44.920;8.616;2022-07-22T01:13:35;6.80;;;5.18;;
35715;SDS011;21840;44.920;8.616;2022-07-22T01:16:02;8.55;;;5.05;;
35715;SDS011;21840;44.920;8.616;2022-07-22T01:18:28;11.50;;;5.88;;
35715;SDS011;21840;44.920;8.616;2022-07-22T01:20:57;7.97;;;5.10;;
35715;SDS011;21840;44.920;8.616;2022-07-22T01:23:23;6.55;;;5.03;;
35715;SDS011;21840;44.920;8.616;2022-07-22T01:25:48;10.25;;;5.30;;
35715;SDS011;21840;44.920;8.616;2022-07-22T01:28:14;19.35;;;5.57;;
35715;SDS011;21840;44.920;8.616;2022-07-22T01:30:40;6.40;;;5.38;;
35715;SDS011;21840;44.920;8.616;2022-07-22T01:33:05;8.73;;;5.28;;
35715;SDS011;21840;44.920;8.616;2022-07-22T01:35:31;10.82;;;6.18;;
35715;SDS011;21840;44.920;8.616;2022-07-22T01:37:56;11.55;;;5.60;;
35715;SDS011;21840;44.920;8.616;2022-07-22T01:40:22;7.55;;;5.03;;
35715;SDS011;21840;44.920;8.616;2022-07-22T01:42:48;15.15;;;5.93;;
35715;SDS011;21840;44.920;8.616;2022-07-22T01:45:13;7.68;;;5.40;;
35715;SDS011;21840;44.920;8.616;2022-07-22T01:47:39;10.88;;;5.70;;
35715;SDS011;21840;44.920;8.616;2022-07-22T01:50:05;8.65;;;5.40;;
35715;SDS011;21840;44.920;8.616;2022-07-22T01:52:33;10.90;;;5.60;;
35715;SDS011;21840;44.920;8.616;2022-07-22T01:54:59;13.05;;;5.57;;
35715;SDS011;21840;44.920;8.616;2022-07-22T01:57:25;10.07;;;5.60;;
35715;SDS011;21840;44.920;8.616;2022-07-22T01:59:52;9.10;;;5.70;;
35715;SDS011;21840;44.920;8.616;2022-07-22T02:02:17;11.85;;;5.43;;
35715;SDS011;21840;44.920;8.616;2022-07-22T02:04:43;9.10;;;5.90;;
35715;SDS011;21840;44.920;8.616;2022-07-22T02:07:08;9.77;;;6.03;;
35715;SDS011;21840;44.920;8.616;2022-07-22T02:09:34;9.57;;;6.03;;
35715;SDS011;21840;44.920;8.616;2022-07-22T02:12:00;10.50;;;5.88;;
35715;SDS011;21840;44.920;8.616;2022-07-22T02:14:27;8.93;;;5.43;;
35715;SDS011;21840;44.920;8.616;2022-07-22T02:16:53;10.40;;;5.72;;
35715;SDS011;21840;44.920;8.616;2022-07-22T02:19:19;8.43;;;5.68;;
35715;SDS011;21840;44.920;8.616;2022-07-22T02:21:44;11.82;;;5.97;;
35715;SDS011;21840;44.920;8.616;2022-07-22T02:24:10;12.93;;;5.85;;
35715;SDS011;21840;44.920;8.616;2022-07-22T02:26:35;8.07;;;5.55;;
35715;SDS011;21840;44.920;8.616;2022-07-22T02:29:01;10.05;;;6.13;;
35715;SDS011;21840;44.920;8.616;2022-07-22T02:31:27;13.30;;;6.30;;
35715;SDS011;21840;44.920;8.616;2022-07-22T02:33:52;13.50;;;5.43;;
35715;SDS011;21840;44.920;8.616;2022-07-22T02:36:18;13.45;;;6.10;;
35715;SDS011;21840;44.920;8.616;2022-07-22T02:38:43;12.63;;;6.40;;
35715;SDS011;21840;44.920;8.616;2022-07-22T02:41:09;8.10;;;5.70;;
35715;SDS011;21840;44.920;8.616;2022-07-22T02:43:39;10.63;;;6.13;;
35715;SDS011;21840;44.920;8.616;2022-07-22T02:46:05;11.77;;;6.20;;
35715;SDS011;21840;44.920;8.616;2022-07-22T02:48:30;8.10;;;6.28;;
35715;SDS011;21840;44.920;8.616;2022-07-22T02:50:56;10.55;;;6.75;;
35715;SDS011;21840;44.920;8.616;2022-07-22T02:53:25;8.15;;;5.90;;
35715;SDS011;21840;44.920;8.616;2022-07-22T02:55:51;11.65;;;6.53;;
35715;SDS011;21840;44.920;8.616;2022-07-22T02:58:17;9.50;;;6.43;;
35715;SDS011;21840;44.920;8.616;2022-07-22T03:00:44;10.70;;;6.82;;
35715;SDS011;21840;44.920;8.616;2022-07-22T03:03:09;13.88;;;6.22;;
35715;SDS011;21840;44.920;8.616;2022-07-22T03:05:35;9.63;;;6.10;;
35715;SDS011;21840;44.920;8.616;2022-07-22T03:08:16;12.35;;;6.00;;
35715;SDS011;21840;44.920;8.616;2022-07-22T03:10:43;9.40;;;6.65;;
35715;SDS011;21840;44.920;8.616;2022-07-22T03:13:09;12.93;;;6.47;;
35715;SDS011;21840;44.920;8.616;2022-07-22T03:15:35;11.63;;;6.90;;
35715;SDS011;21840;44.920;8.616;2022-07-22T03:18:00;8.55;;;6.55;;
35715;SDS011;21840;44.920;8.616;2022-07-22T03:20:26;10.38;;;6.28;;
35715;SDS011;21840;44.920;8.616;2022-07-22T03:22:52;10.70;;;6.47;;
35715;SDS011;21840;44.920;8.616;2022-07-22T03:25:17;12.48;;;7.05;;
35715;SDS011;21840;44.920;8.616;2022-07-22T03:27:43;13.63;;;7.03;;
35715;SDS011;21840;44.920;8.616;2022-07-22T03:30:09;12.10;;;7.00;;
35715;SDS011;21840;44.920;8.616;2022-07-22T03:32:38;14.38;;;7.75;;
35715;SDS011;21840;44.920;8.616;2022-07-22T03:35:05;11.60;;;6.22;;
35715;SDS011;21840;44.920;8.616;2022-07-22T03:37:34;12.30;;;5.75;;
35715;SDS011;21840;44.920;8.616;2022-07-22T03:40:00;9.18;;;5.75;;
35715;SDS011;21840;44.920;8.616;2022-07-22T03:42:26;8.38;;;5.80;;
35715;SDS011;21840;44.920;8.616;2022-07-22T03:44:52;9.13;;;5.60;;
35715;SDS011;21840;44.920;8.616;2022-07-22T03:47:18;11.65;;;5.55;;
35715;SDS011;21840;44.920;8.616;2022-07-22T03:49:46;9.45;;;5.95;;
35715;SDS011;21840;44.920;8.616;2022-07-22T03:52:12;9.68;;;5.95;;
35715;SDS011;21840;44.920;8.616;2022-07-22T03:54:38;11.18;;;6.13;;
35715;SDS011;21840;44.920;8.616;2022-07-22T03:57:04;12.30;;;6.85;;
35715;SDS011;21840;44.920;8.616;2022-07-22T03:59:31;13.02;;;6.88;;
35715;SDS011;21840;44.920;8.616;2022-07-22T04:01:57;12.70;;;6.28;;
35715;SDS011;21840;44.920;8.616;2022-07-22T04:04:22;9.43;;;6.05;;
35715;SDS011;21840;44.920;8.616;2022-07-22T04:06:48;10.23;;;6.82;;
35715;SDS011;21840;44.920;8.616;2022-07-22T04:09:19;12.30;;;7.25;;
35715;SDS011;21840;44.920;8.616;2022-07-22T04:11:45;14.30;;;7.97;;
35715;SDS011;21840;44.920;8.616;2022-07-22T04:14:12;12.73;;;7.07;;
35715;SDS011;21840;44.920;8.616;2022-07-22T04:16:38;11.55;;;7.50;;
35715;SDS011;21840;44.920;8.616;2022-07-22T04:19:08;15.00;;;7.07;;
35715;SDS011;21840;44.920;8.616;2022-07-22T04:21:53;14.75;;;7.82;;
35715;SDS011;21840;44.920;8.616;2022-07-22T04:24:22;13.38;;;7.22;;
35715;SDS011;21840;44.920;8.616;2022-07-22T04:26:47;11.07;;;7.30;;
35715;SDS011;21840;44.920;8.616;2022-07-22T04:29:13;13.18;;;7.30;;
35715;SDS011;21840;44.920;8.616;2022-07-22T04:31:40;12.25;;;7.20;;
35715;SDS011;21840;44.920;8.616;2022-07-22T04:34:17;13.15;;;7.15;;
35715;SDS011;21840;44.920;8.616;2022-07-22T04:36:44;17.90;;;7.80;;
35715;SDS011;21840;44.920;8.616;2022-07-22T04:39:09;11.20;;;7.10;;
35715;SDS011;21840;44.920;8.616;2022-07-22T04:41:36;15.60;;;7.28;;
35715;SDS011;21840;44.920;8.616;2022-07-22T04:44:02;14.93;;;7.03;;
35715;SDS011;21840;44.920;8.616;2022-07-22T04:46:31;14.80;;;7.82;;
35715;SDS011;21840;44.920;8.616;2022-07-22T04:48:58;15.60;;;8.30;;
35715;SDS011;21840;44.920;8.616;2022-07-22T04:51:23;17.98;;;8.18;;
35715;SDS011;21840;44.920;8.616;2022-07-22T04:53:54;16.67;;;6.80;;
35715;SDS011;21840;44.920;8.616;2022-07-22T04:56:22;13.68;;;7.43;;
35715;SDS011;21840;44.920;8.616;2022-07-22T04:58:48;10.65;;;6.72;;
35715;SDS011;21840;44.920;8.616;2022-07-22T05:01:14;9.20;;;6.63;;
35715;SDS011;21840;44.920;8.616;2022-07-22T05:03:42;14.25;;;6.97;;
35715;SDS011;21840;44.920;8.616;2022-07-22T05:06:09;14.18;;;6.75;;
35715;SDS011;21840;44.920;8.616;2022-07-22T05:08:37;17.83;;;7.50;;
35715;SDS011;21840;44.920;8.616;2022-07-22T05:11:02;15.43;;;7.65;;
35715;SDS011;21840;44.920;8.616;2022-07-22T05:13:28;16.67;;;7.80;;
35715;SDS011;21840;44.920;8.616;2022-07-22T05:15:53;14.10;;;9.48;;
35715;SDS011;21840;44.920;8.616;2022-07-22T05:18:19;21.75;;;8.18;;
35715;SDS011;21840;44.920;8.616;2022-07-22T05:20:45;16.27;;;8.85;;
35715;SDS011;21840;44.920;8.616;2022-07-22T05:23:11;21.52;;;8.48;;
35715;SDS011;21840;44.920;8.616;2022-07-22T05:25:37;22.48;;;8.75;;
35715;SDS011;21840;44.920;8.616;2022-07-22T05:28:03;12.85;;;8.23;;
35715;SDS011;21840;44.920;8.616;2022-07-22T05:33:03;15.30;;;9.25;;
35715;SDS011;21840;44.920;8.616;2022-07-22T05:36:01;20.27;;;8.88;;
35715;SDS011;21840;44.920;8.616;2022-07-22T05:38:35;16.70;;;8.30;;
35715;SDS011;21840;44.920;8.616;2022-07-22T05:41:01;10.88;;;8.02;;
35715;SDS011;21840;44.920;8.616;2022-07-22T05:43:27;13.85;;;8.23;;
35715;SDS011;21840;44.920;8.616;2022-07-22T05:45:53;20.92;;;9.10;;
35715;SDS011;21840;44.920;8.616;2022-07-22T05:48:20;19.95;;;8.45;;
35715;SDS011;21840;44.920;8.616;2022-07-22T05:50:46;16.23;;;8.35;;
35715;SDS011;21840;44.920;8.616;2022-07-22T05:53:12;15.57;;;8.57;;
35715;SDS011;21840;44.920;8.616;2022-07-22T05:55:39;20.42;;;8.45;;
35715;SDS011;21840;44.920;8.616;2022-07-22T05:58:04;16.95;;;8.88;;
35715;SDS011;21840;44.920;8.616;2022-07-22T06:00:30;14.68;;;8.85;;
35715;SDS011;21840;44.920;8.616;2022-07-22T06:03:00;15.43;;;9.05;;
35715;SDS011;21840;44.920;8.616;2022-07-22T06:05:25;17.80;;;10.00;;
35715;SDS011;21840;44.920;8.616;2022-07-22T06:07:52;23.50;;;9.27;;
35715;SDS011;21840;44.920;8.616;2022-07-22T06:10:36;12.15;;;8.65;;
35715;SDS011;21840;44.920;8.616;2022-07-22T06:13:02;17.55;;;8.80;;
35715;SDS011;21840;44.920;8.616;2022-07-22T06:15:27;14.55;;;9.20;;
35715;SDS011;21840;44.920;8.616;2022-07-22T06:17:54;21.48;;;9.55;;
35715;SDS011;21840;44.920;8.616;2022-07-22T06:20:22;16.38;;;9.45;;
35715;SDS011;21840;44.920;8.616;2022-07-22T06:22:48;13.48;;;8.50;;
35715;SDS011;21840;44.920;8.616;2022-07-22T06:25:13;18.08;;;8.27;;
35715;SDS011;21840;44.920;8.616;2022-07-22T06:27:39;17.42;;;8.38;;
35715;SDS011;21840;44.920;8.616;2022-07-22T06:30:06;14.32;;;8.50;;
35715;SDS011;21840;44.920;8.616;2022-07-22T06:32:32;16.90;;;8.55;;
35715;SDS011;21840;44.920;8.616;2022-07-22T06:34:58;18.25;;;8.93;;
35715;SDS011;21840;44.920;8.616;2022-07-22T06:37:24;27.48;;;9.10;;
35715;SDS011;21840;44.920;8.616;2022-07-22T06:39:49;10.48;;;7.72;;
35715;SDS011;21840;44.920;8.616;2022-07-22T06:42:21;10.57;;;8.45;;
35715;SDS011;21840;44.920;8.616;2022-07-22T06:45:10;19.90;;;8.05;;
35715;SDS011;21840;44.920;8.616;2022-07-22T06:47:55;12.40;;;6.90;;
35715;SDS011;21840;44.920;8.616;2022-07-22T06:50:24;13.65;;;7.70;;
35715;SDS011;21840;44.920;8.616;2022-07-22T06:52:51;12.90;;;8.65;;
35715;SDS011;21840;44.920;8.616;2022-07-22T06:55:17;14.18;;;7.82;;
35715;SDS011;21840;44.920;8.616;2022-07-22T06:57:55;26.23;;;8.32;;
35715;SDS011;21840;44.920;8.616;2022-07-22T07:00:21;15.60;;;7.97;;
35715;SDS011;21840;44.920;8.616;2022-07-22T07:03:04;16.60;;;8.73;;
35715;SDS011;21840;44.920;8.616;2022-07-22T07:05:30;15.02;;;7.97;;
35715;SDS011;21840;44.920;8.616;2022-07-22T07:07:56;17.10;;;8.25;;
35715;SDS011;21840;44.920;8.616;2022-07-22T07:10:25;46.83;;;8.77;;
35715;SDS011;21840;44.920;8.616;2022-07-22T07:12:59;53.03;;;10.40;;
35715;SDS011;21840;44.920;8.616;2022-07-22T07:18:08;22.38;;;8.50;;
35715;SDS011;21840;44.920;8.616;2022-07-22T07:20:33;26.00;;;8.75;;
35715;SDS011;21840;44.920;8.616;2022-07-22T07:23:00;19.65;;;8.73;;
35715;SDS011;21840;44.920;8.616;2022-07-22T07:25:32;24.38;;;9.25;;
35715;SDS011;21840;44.920;8.616;2022-07-22T07:27:59;24.17;;;9.15;;
35715;SDS011;21840;44.920;8.616;2022-07-22T07:30:42;13.90;;;8.95;;
35715;SDS011;21840;44.920;8.616;2022-07-22T07:33:08;19.17;;;8.05;;
35715;SDS011;21840;44.920;8.616;2022-07-22T07:35:34;14.93;;;8.27;;
35715;SDS011;21840;44.920;8.616;2022-07-22T07:38:00;19.60;;;8.85;;
35715;SDS011;21840;44.920;8.616;2022-07-22T07:40:26;24.38;;;8.90;;
35715;SDS011;21840;44.920;8.616;2022-07-22T07:42:52;17.92;;;9.07;;
35715;SDS011;21840;44.920;8.616;2022-07-22T07:45:18;17.65;;;9.00;;
35715;SDS011;21840;44.920;8.616;2022-07-22T07:47:43;21.45;;;8.68;;
35715;SDS011;21840;44.920;8.616;2022-07-22T07:50:11;18.42;;;9.02;;
35715;SDS011;21840;44.920;8.616;2022-07-22T07:52:41;18.38;;;8.50;;
35715;SDS011;21840;44.920;8.616;2022-07-22T07:55:09;18.30;;;8.20;;
35715;SDS011;21840;44.920;8.616;2022-07-22T07:57:37;16.75;;;8.35;;
35715;SDS011;21840;44.920;8.616;2022-07-22T08:00:09;16.55;;;7.65;;
35715;SDS011;21840;44.920;8.616;2022-07-22T08:02:38;20.17;;;8.40;;
35715;SDS011;21840;44.920;8.616;2022-07-22T08:05:05;12.18;;;7.32;;
35715;SDS011;21840;44.920;8.616;2022-07-22T08:07:31;11.50;;;7.75;;
35715;SDS011;21840;44.920;8.616;2022-07-22T08:09:57;20.13;;;7.43;;
35715;SDS011;21840;44.920;8.616;2022-07-22T08:12:45;16.55;;;7.18;;
35715;SDS011;21840;44.920;8.616;2022-07-22T08:15:30;20.65;;;8.57;;
35715;SDS011;21840;44.920;8.616;2022-07-22T08:17:56;16.58;;;7.63;;
35715;SDS011;21840;44.920;8.616;2022-07-22T08:20:23;12.20;;;7.93;;
35715;SDS011;21840;44.920;8.616;2022-07-22T08:22:50;12.55;;;8.10;;
35715;SDS011;21840;44.920;8.616;2022-07-22T08:25:17;17.10;;;8.20;;
35715;SDS011;21840;44.920;8.616;2022-07-22T08:27:43;12.40;;;7.88;;
35715;SDS011;21840;44.920;8.616;2022-07-22T08:30:09;15.73;;;8.75;;
35715;SDS011;21840;44.920;8.616;2022-07-22T08:32:35;16.55;;;8.38;;
35715;SDS011;21840;44.920;8.616;2022-07-22T08:35:01;18.13;;;8.13;;
35715;SDS011;21840;44.920;8.616;2022-07-22T08:37:28;20.92;;;8.15;;
35715;SDS011;21840;44.920;8.616;2022-07-22T08:39:54;12.65;;;7.95;;
35715;SDS011;21840;44.920;8.616;2022-07-22T08:42:23;18.48;;;8.30;;
35715;SDS011;21840;44.920;8.616;2022-07-22T08:44:49;15.05;;;8.00;;
35715;SDS011;21840;44.920;8.616;2022-07-22T08:47:19;14.07;;;8.30;;
35715;SDS011;21840;44.920;8.616;2022-07-22T08:50:04;16.98;;;8.38;;
35715;SDS011;21840;44.920;8.616;2022-07-22T08:52:41;11.43;;;7.80;;
35715;SDS011;21840;44.920;8.616;2022-07-22T08:55:07;20.38;;;7.70;;
35715;SDS011;21840;44.920;8.616;2022-07-22T08:57:34;19.27;;;8.45;;
35715;SDS011;21840;44.920;8.616;2022-07-22T09:00:03;13.25;;;7.53;;
35715;SDS011;21840;44.920;8.616;2022-07-22T09:02:36;14.38;;;8.60;;
35715;SDS011;21840;44.920;8.616;2022-07-22T09:05:04;10.10;;;7.45;;
35715;SDS011;21840;44.920;8.616;2022-07-22T09:07:34;18.67;;;8.15;;
35715;SDS011;21840;44.920;8.616;2022-07-22T09:10:22;17.92;;;8.65;;
35715;SDS011;21840;44.920;8.616;2022-07-22T09:13:08;14.40;;;8.27;;
35715;SDS011;21840;44.920;8.616;2022-07-22T09:15:49;13.73;;;7.83;;
35715;SDS011;21840;44.920;8.616;2022-07-22T09:18:46;18.25;;;7.72;;
35715;SDS011;21840;44.920;8.616;2022-07-22T09:21:30;15.48;;;7.90;;
35715;SDS011;21840;44.920;8.616;2022-07-22T09:24:29;16.15;;;7.35;;
35715;SDS011;21840;44.920;8.616;2022-07-22T09:27:22;13.65;;;8.50;;
35715;SDS011;21840;44.920;8.616;2022-07-22T09:30:14;14.02;;;8.07;;
35715;SDS011;21840;44.920;8.616;2022-07-22T09:32:50;16.95;;;8.13;;
35715;SDS011;21840;44.920;8.616;2022-07-22T09:35:33;17.02;;;7.70;;
35715;SDS011;21840;44.920;8.616;2022-07-22T09:38:00;17.52;;;7.72;;
35715;SDS011;21840;44.920;8.616;2022-07-22T09:40:28;12.10;;;7.90;;
35715;SDS011;21840;44.920;8.616;2022-07-22T09:43:00;11.10;;;7.20;;
35715;SDS011;21840;44.920;8.616;2022-07-22T09:45:30;13.77;;;6.85;;
35715;SDS011;21840;44.920;8.616;2022-07-22T09:47:57;11.68;;;6.85;;
35715;SDS011;21840;44.920;8.616;2022-07-22T09:50:28;17.55;;;6.50;;
35715;SDS011;21840;44.920;8.616;2022-07-22T09:53:11;15.25;;;6.65;;
35715;SDS011;21840;44.920;8.616;2022-07-22T09:55:42;16.83;;;6.45;;
35715;SDS011;21840;44.920;8.616;2022-07-22T09:58:07;8.82;;;6.53;;
35715;SDS011;21840;44.920;8.616;2022-07-22T10:00:34;13.15;;;7.22;;
35715;SDS011;21840;44.920;8.616;2022-07-22T10:03:03;13.50;;;6.18;;
35715;SDS011;21840;44.920;8.616;2022-07-22T10:05:40;8.07;;;6.70;;
35715;SDS011;21840;44.920;8.616;2022-07-22T10:08:10;15.07;;;6.50;;
35715;SDS011;21840;44.920;8.616;2022-07-22T10:10:37;11.90;;;6.70;;
35715;SDS011;21840;44.920;8.616;2022-07-22T10:13:04;10.68;;;6.47;;
35715;SDS011;21840;44.920;8.616;2022-07-22T10:15:32;16.30;;;6.03;;
35715;SDS011;21840;44.920;8.616;2022-07-22T10:18:03;20.88;;;6.53;;
35715;SDS011;21840;44.920;8.616;2022-07-22T10:20:32;18.38;;;6.05;;
35715;SDS011;21840;44.920;8.616;2022-07-22T10:23:00;12.13;;;6.13;;
35715;SDS011;21840;44.920;8.616;2022-07-22T10:25:31;9.48;;;6.20;;
35715;SDS011;21840;44.920;8.616;2022-07-22T10:28:19;12.43;;;5.90;;
35715;SDS011;21840;44.920;8.616;2022-07-22T10:30:47;15.90;;;6.30;;
35715;SDS011;21840;44.920;8.616;2022-07-22T10:38:20;14.75;;;5.75;;
35715;SDS011;21840;44.920;8.616;2022-07-22T10:40:53;11.25;;;5.93;;
35715;SDS011;21840;44.920;8.616;2022-07-22T10:43:22;9.98;;;6.15;;
35715;SDS011;21840;44.920;8.616;2022-07-22T10:48:33;11.27;;;5.45;;
35715;SDS011;21840;44.920;8.616;2022-07-22T10:51:14;9.70;;;4.25;;
35715;SDS011;21840;44.920;8.616;2022-07-22T10:56:27;9.13;;;5.55;;
35715;SDS011;21840;44.920;8.616;2022-07-22T11:01:41;11.13;;;5.05;;
35715;SDS011;21840;44.920;8.616;2022-07-22T11:04:12;6.30;;;4.82;;
35715;SDS011;21840;44.920;8.616;2022-07-22T11:06:46;11.43;;;5.28;;
35715;SDS011;21840;44.920;8.616;2022-07-22T11:11:47;12.48;;;4.90;;
35715;SDS011;21840;44.920;8.616;2022-07-22T11:17:09;13.18;;;5.47;;
35715;SDS011;21840;44.920;8.616;2022-07-22T11:19:36;13.55;;;4.72;;
35715;SDS011;21840;44.920;8.616;2022-07-22T11:22:04;12.68;;;5.20;;
35715;SDS011;21840;44.920;8.616;2022-07-22T11:24:32;13.40;;;5.20;;
35715;SDS011;21840;44.920;8.616;2022-07-22T11:26:58;10.20;;;5.55;;
35715;SDS011;21840;44.920;8.616;2022-07-22T11:32:01;9.70;;;4.78;;
35715;SDS011;21840;44.920;8.616;2022-07-22T11:34:32;10.57;;;4.72;;
35715;SDS011;21840;44.920;8.616;2022-07-22T11:37:00;8.38;;;5.13;;
35715;SDS011;21840;44.920;8.616;2022-07-22T11:39:26;9.55;;;5.88;;
35715;SDS011;21840;44.920;8.616;2022-07-22T11:41:55;14.32;;;5.78;;
35715;SDS011;21840;44.920;8.616;2022-07-22T11:44:24;21.02;;;5.47;;
35715;SDS011;21840;44.920;8.616;2022-07-22T11:46:51;8.02;;;4.90;;
35715;SDS011;21840;44.920;8.616;2022-07-22T11:49:21;9.68;;;5.22;;
35715;SDS011;21840;44.920;8.616;2022-07-22T11:51:47;7.38;;;4.60;;
35715;SDS011;21840;44.920;8.616;2022-07-22T11:54:13;17.38;;;5.18;;
35715;SDS011;21840;44.920;8.616;2022-07-22T11:56:40;8.98;;;4.72;;
35715;SDS011;21840;44.920;8.616;2022-07-22T11:59:06;11.90;;;4.90;;
35715;SDS011;21840;44.920;8.616;2022-07-22T12:01:35;16.23;;;5.07;;
35715;SDS011;21840;44.920;8.616;2022-07-22T12:04:05;11.75;;;5.22;;
35715;SDS011;21840;44.920;8.616;2022-07-22T12:09:16;9.02;;;5.78;;
35715;SDS011;21840;44.920;8.616;2022-07-22T12:11:47;14.30;;;4.93;;
35715;SDS011;21840;44.920;8.616;2022-07-22T12:14:14;8.68;;;5.07;;
35715;SDS011;21840;44.920;8.616;2022-07-22T12:16:45;11.63;;;4.78;;
35715;SDS011;21840;44.920;8.616;2022-07-22T12:19:23;25.02;;;5.88;;
35715;SDS011;21840;44.920;8.616;2022-07-22T12:24:30;105.43;;;7.97;;
35715;SDS011;21840;44.920;8.616;2022-07-22T12:27:00;9.32;;;5.40;;
35715;SDS011;21840;44.920;8.616;2022-07-22T12:29:40;16.48;;;5.80;;
35715;SDS011;21840;44.920;8.616;2022-07-22T12:32:06;13.68;;;4.90;;
35715;SDS011;21840;44.920;8.616;2022-07-22T12:37:26;14.38;;;5.10;;
35715;SDS011;21840;44.920;8.616;2022-07-22T12:42:39;31.77;;;6.25;;
35715;SDS011;21840;44.920;8.616;2022-07-22T12:45:24;21.85;;;5.82;;
35715;SDS011;21840;44.920;8.616;2022-07-22T12:47:52;13.30;;;5.50;;
35715;SDS011;21840;44.920;8.616;2022-07-22T12:50:22;40.95;;;5.63;;
35715;SDS011;21840;44.920;8.616;2022-07-22T12:52:50;65.68;;;7.05;;
35715;SDS011;21840;44.920;8.616;2022-07-22T12:55:19;22.55;;;5.28;;
35715;SDS011;21840;44.920;8.616;2022-07-22T12:57:45;15.02;;;5.00;;
35715;SDS011;21840;44.920;8.616;2022-07-22T13:00:10;14.55;;;5.45;;
35715;SDS011;21840;44.920;8.616;2022-07-22T13:02:42;14.80;;;5.10;;
35715;SDS011;21840;44.920;8.616;2022-07-22T13:05:07;10.85;;;5.05;;
35715;SDS011;21840;44.920;8.616;2022-07-22T13:07:36;7.30;;;5.35;;
35715;SDS011;21840;44.920;8.616;2022-07-22T13:10:01;7.30;;;4.97;;
35715;SDS011;21840;44.920;8.616;2022-07-22T13:12:27;13.45;;;5.63;;
35715;SDS011;21840;44.920;8.616;2022-07-22T13:14:52;10.27;;;4.90;;
35715;SDS011;21840;44.920;8.616;2022-07-22T13:17:18;14.30;;;4.85;;
35715;SDS011;21840;44.920;8.616;2022-07-22T13:19:44;13.82;;;5.40;;
35715;SDS011;21840;44.920;8.616;2022-07-22T13:22:10;13.27;;;5.43;;
35715;SDS011;21840;44.920;8.616;2022-07-22T13:24:36;16.15;;;5.40;;
35715;SDS011;21840;44.920;8.616;2022-07-22T13:27:02;17.92;;;5.38;;
35715;SDS011;21840;44.920;8.616;2022-07-22T13:29:27;13.77;;;5.18;;
35715;SDS011;21840;44.920;8.616;2022-07-22T13:31:53;73.18;;;8.52;;
35715;SDS011;21840;44.920;8.616;2022-07-22T13:34:18;8.82;;;4.63;;
35715;SDS011;21840;44.920;8.616;2022-07-22T13:36:44;10.18;;;5.18;;
35715;SDS011;21840;44.920;8.616;2022-07-22T13:39:09;8.15;;;5.00;;
35715;SDS011;21840;44.920;8.616;2022-07-22T13:41:35;10.27;;;4.93;;
35715;SDS011;21840;44.920;8.616;2022-07-22T13:44:00;15.45;;;5.35;;
35715;SDS011;21840;44.920;8.616;2022-07-22T13:46:26;12.90;;;5.10;;
35715;SDS011;21840;44.920;8.616;2022-07-22T13:48:51;9.88;;;4.03;;
35715;SDS011;21840;44.920;8.616;2022-07-22T13:51:18;10.30;;;4.72;;
35715;SDS011;21840;44.920;8.616;2022-07-22T13:53:44;8.85;;;4.30;;
35715;SDS011;21840;44.920;8.616;2022-07-22T13:56:10;8.40;;;4.30;;
35715;SDS011;21840;44.920;8.616;2022-07-22T13:58:36;8.77;;;4.50;;
35715;SDS011;21840;44.920;8.616;2022-07-22T14:01:03;13.63;;;4.15;;
35715;SDS011;21840;44.920;8.616;2022-07-22T14:03:32;10.57;;;4.22;;
35715;SDS011;21840;44.920;8.616;2022-07-22T14:05:57;5.93;;;4.55;;
35715;SDS011;21840;44.920;8.616;2022-07-22T14:08:23;8.27;;;4.45;;
35715;SDS011;21840;44.920;8.616;2022-07-22T14:10:48;9.23;;;4.55;;
35715;SDS011;21840;44.920;8.616;2022-07-22T14:13:13;9.93;;;4.30;;
35715;SDS011;21840;44.920;8.616;2022-07-22T14:15:42;10.20;;;4.30;;
35715;SDS011;21840;44.920;8.616;2022-07-22T14:18:07;12.50;;;4.95;;
35715;SDS011;21840;44.920;8.616;2022-07-22T14:20:33;8.48;;;4.53;;
35715;SDS011;21840;44.920;8.616;2022-07-22T14:23:00;9.32;;;4.68;;
35715;SDS011;21840;44.920;8.616;2022-07-22T14:25:27;11.55;;;4.53;;
35715;SDS011;21840;44.920;8.616;2022-07-22T14:27:53;5.88;;;4.18;;
35715;SDS011;21840;44.920;8.616;2022-07-22T14:30:18;13.13;;;4.63;;
35715;SDS011;21840;44.920;8.616;2022-07-22T14:32:44;10.52;;;5.20;;
35715;SDS011;21840;44.920;8.616;2022-07-22T14:35:09;10.02;;;4.95;;
35715;SDS011;21840;44.920;8.616;2022-07-22T14:37:35;8.38;;;4.68;;
35715;SDS011;21840;44.920;8.616;2022-07-22T14:40:01;10.75;;;4.40;;
35715;SDS011;21840;44.920;8.616;2022-07-22T14:42:27;6.07;;;4.13;;
35715;SDS011;21840;44.920;8.616;2022-07-22T14:44:53;11.90;;;4.75;;
35715;SDS011;21840;44.920;8.616;2022-07-22T14:47:18;8.38;;;4.80;;
35715;SDS011;21840;44.920;8.616;2022-07-22T14:49:44;10.80;;;4.88;;
35715;SDS011;21840;44.920;8.616;2022-07-22T14:52:09;11.85;;;4.53;;
35715;SDS011;21840;44.920;8.616;2022-07-22T14:54:35;5.82;;;4.70;;
35715;SDS011;21840;44.920;8.616;2022-07-22T14:57:00;9.63;;;5.38;;
35715;SDS011;21840;44.920;8.616;2022-07-22T14:59:29;8.27;;;5.05;;
35715;SDS011;21840;44.920;8.616;2022-07-22T15:01:55;8.38;;;4.75;;
35715;SDS011;21840;44.920;8.616;2022-07-22T15:04:20;8.02;;;4.93;;
35715;SDS011;21840;44.920;8.616;2022-07-22T15:06:46;10.15;;;5.03;;
35715;SDS011;21840;44.920;8.616;2022-07-22T15:09:11;15.35;;;5.32;;
35715;SDS011;21840;44.920;8.616;2022-07-22T15:11:37;10.63;;;5.50;;
35715;SDS011;21840;44.920;8.616;2022-07-22T15:14:03;11.20;;;5.13;;
35715;SDS011;21840;44.920;8.616;2022-07-22T15:16:28;8.65;;;4.60;;
35715;SDS011;21840;44.920;8.616;2022-07-22T15:18:54;7.68;;;4.90;;
35715;SDS011;21840;44.920;8.616;2022-07-22T15:21:19;7.10;;;4.47;;
35715;SDS011;21840;44.920;8.616;2022-07-22T15:23:45;10.43;;;5.25;;